Terminal Aerodrome Forecast
Issued by NWS

Home | Current Version | Previous Version | Text Only | Print | Product List | Glossary On
Versions: 1 2 3 4 5 6 7 8 9 10 11 12 13 14 15 16 17 18 19 20 21 22 23 24
731
FTUS45 KPSR 262106 AAA
TAFPHX
TAF AMD
KPHX 262106Z 2621/2718 VRB06KT P6SM SCT070 SCT150
      TEMPO 2621/2701 25006KT
     FM270600 11008KT P6SM FEW070 SCT250
     FM271400 13010KT P6SM SCT070 OVC200=

USA.gov is the U.S. government's official web portal to all federal, state and local government web resources and services.